createdAt,value
2023-04-16T00:00:14.104Z,17.7
2023-04-16T00:01:15.853Z,17.7
2023-04-16T00:02:17.996Z,17.7
2023-04-16T00:03:20.851Z,17.7
2023-04-16T00:04:23.582Z,17.7
2023-04-16T00:05:25.705Z,17.7
2023-04-16T00:06:27.589Z,17.7
2023-04-16T00:07:29.412Z,17.7
2023-04-16T00:08:31.274Z,17.6
2023-04-16T00:09:33.325Z,17.6
2023-04-16T00:10:35.270Z,17.7
2023-04-16T00:11:37.241Z,17.6
2023-04-16T00:12:39.077Z,17.6
2023-04-16T00:13:40.916Z,17.6
2023-04-16T00:14:42.780Z,17.6
2023-04-16T00:15:44.643Z,17.6
2023-04-16T00:16:46.506Z,17.6
2023-04-16T00:17:48.673Z,17.6
2023-04-16T00:18:50.676Z,17.6
2023-04-16T00:19:52.543Z,17.6
2023-04-16T00:20:54.489Z,17.6
2023-04-16T00:21:56.452Z,17.6
2023-04-16T00:22:58.283Z,17.6
2023-04-16T00:24:00.163Z,17.6
2023-04-16T00:25:01.989Z,17.6
2023-04-16T00:26:04.049Z,17.6
2023-04-16T00:27:06.125Z,17.6
2023-04-16T00:28:10.986Z,17.6
2023-04-16T00:29:12.863Z,17.6
2023-04-16T00:30:14.727Z,17.6
2023-04-16T00:31:16.712Z,17.6
2023-04-16T00:32:18.837Z,17.6
2023-04-16T00:33:20.784Z,17.6
2023-04-16T00:34:22.603Z,17.6
2023-04-16T00:35:24.498Z,17.6
2023-04-16T00:36:26.446Z,17.6
2023-04-16T00:37:28.420Z,17.6
2023-04-16T00:38:30.248Z,17.6
2023-04-16T00:39:32.078Z,17.6
2023-04-16T00:40:33.925Z,17.5
2023-04-16T00:41:35.793Z,17.5
2023-04-16T00:42:37.733Z,17.6
2023-04-16T00:43:39.579Z,17.5
2023-04-16T00:44:41.433Z,17.5
2023-04-16T00:45:43.395Z,17.5
2023-04-16T00:46:45.402Z,17.5
2023-04-16T00:47:47.432Z,17.5
2023-04-16T00:48:49.380Z,17.5
2023-04-16T00:49:51.191Z,17.5
2023-04-16T00:50:53.026Z,17.5
2023-04-16T00:51:54.903Z,17.5
2023-04-16T00:52:56.804Z,17.5
2023-04-16T00:53:58.712Z,17.5
2023-04-16T00:55:00.529Z,17.5
2023-04-16T00:56:02.397Z,17.5
2023-04-16T00:57:04.244Z,17.5
2023-04-16T00:58:06.114Z,17.5
2023-04-16T00:59:08.566Z,17.5
2023-04-16T01:00:11.434Z,17.5
2023-04-16T01:01:13.338Z,17.5
2023-04-16T01:02:15.548Z,17.5
2023-04-16T01:03:17.879Z,17.5
2023-04-16T01:04:20.745Z,17.5
2023-04-16T01:05:22.951Z,17.5
2023-04-16T01:06:24.796Z,17.5
2023-04-16T01:07:26.639Z,17.5
2023-04-16T01:08:28.513Z,17.5
2023-04-16T01:09:30.354Z,17.5
2023-04-16T01:10:32.195Z,17.5
2023-04-16T01:11:33.935Z,17.5
2023-04-16T01:12:35.802Z,17.5
2023-04-16T01:13:37.647Z,17.5
2023-04-16T01:14:39.493Z,17.5
2023-04-16T01:15:41.471Z,17.5
2023-04-16T01:16:43.420Z,17.5
2023-04-16T01:17:45.272Z,17.5
2023-04-16T01:18:47.297Z,17.5
2023-04-16T01:19:49.163Z,17.5
2023-04-16T01:20:51.012Z,17.5
2023-04-16T01:21:52.955Z,17.5
2023-04-16T01:22:54.810Z,17.5
2023-04-16T01:23:56.781Z,17.5
2023-04-16T01:24:58.623Z,17.5
2023-04-16T01:26:00.474Z,17.5
2023-04-16T01:27:02.316Z,17.5
2023-04-16T01:28:04.260Z,17.5
2023-04-16T01:29:06.357Z,17.5
2023-04-16T01:30:08.881Z,17.5
2023-04-16T01:31:10.705Z,17.5
2023-04-16T01:32:12.489Z,17.5
2023-04-16T01:33:14.439Z,17.5
2023-04-16T01:34:16.288Z,17.5
2023-04-16T01:35:18.157Z,17.5
2023-04-16T01:36:20.200Z,17.5
2023-04-16T01:37:22.048Z,17.5
2023-04-16T01:38:24.089Z,17.5
2023-04-16T01:39:25.972Z,17.5
2023-04-16T01:40:27.690Z,17.5
2023-04-16T01:41:29.536Z,17.5
2023-04-16T01:42:31.396Z,17.5
2023-04-16T01:43:33.139Z,17.5
2023-04-16T01:44:34.899Z,17.5
2023-04-16T01:45:36.755Z,17.5
2023-04-16T01:46:38.741Z,17.5
2023-04-16T01:47:40.874Z,17.5
2023-04-16T01:48:42.805Z,17.5
2023-04-16T01:49:44.650Z,17.5
2023-04-16T01:50:46.606Z,17.5
2023-04-16T01:51:48.459Z,17.5
2023-04-16T01:52:50.298Z,17.5
2023-04-16T01:53:52.158Z,17.5
2023-04-16T01:54:53.993Z,17.4
2023-04-16T01:55:55.858Z,17.5
2023-04-16T01:56:57.585Z,17.4
2023-04-16T01:57:59.289Z,17.4
2023-04-16T01:59:01.116Z,17.5
2023-04-16T02:00:03.373Z,17.5
2023-04-16T02:01:05.341Z,17.5
2023-04-16T02:02:07.607Z,17.5
2023-04-16T02:03:10.120Z,17.5
2023-04-16T02:04:12.539Z,17.5
2023-04-16T02:05:14.556Z,17.4
2023-04-16T02:06:16.414Z,17.4
2023-04-16T02:07:18.257Z,17.5
2023-04-16T02:08:20.211Z,17.4
2023-04-16T02:09:22.257Z,17.5
2023-04-16T02:10:24.248Z,17.5
2023-04-16T02:11:26.061Z,17.5
2023-04-16T02:12:27.917Z,17.5
2023-04-16T02:13:29.654Z,17.5
2023-04-16T02:14:31.506Z,17.5
2023-04-16T02:15:33.359Z,17.5
2023-04-16T02:16:35.490Z,17.5
2023-04-16T02:17:37.710Z,17.5
2023-04-16T02:18:39.530Z,17.5
2023-04-16T02:19:41.269Z,17.4
2023-04-16T02:20:43.114Z,17.5
2023-04-16T02:21:44.962Z,17.5
2023-04-16T02:22:46.924Z,17.5
2023-04-16T02:23:48.773Z,17.5
2023-04-16T02:24:50.721Z,17.5
2023-04-16T02:25:52.609Z,17.5
2023-04-16T02:26:54.420Z,17.5
2023-04-16T02:27:56.367Z,17.5
2023-04-16T02:28:58.236Z,17.5
2023-04-16T02:30:00.070Z,17.5
2023-04-16T02:31:01.919Z,17.5
2023-04-16T02:32:03.998Z,17.5
2023-04-16T02:33:06.244Z,17.5
2023-04-16T02:34:08.637Z,17.5
2023-04-16T02:35:10.458Z,17.5
2023-04-16T02:36:12.400Z,17.5
2023-04-16T02:37:14.350Z,17.5
2023-04-16T02:38:16.210Z,17.6
2023-04-16T02:39:18.147Z,17.5
2023-04-16T02:40:20.207Z,17.6
2023-04-16T02:41:22.083Z,17.6
2023-04-16T02:42:23.902Z,17.5
2023-04-16T02:43:25.854Z,17.5
2023-04-16T02:44:27.513Z,17.5
2023-04-16T02:45:29.354Z,17.5
2023-04-16T02:46:31.341Z,17.5
2023-04-16T02:47:33.379Z,17.5
2023-04-16T02:48:35.421Z,17.5
2023-04-16T02:49:37.172Z,17.5
2023-04-16T02:50:39.025Z,17.5
2023-04-16T02:51:40.867Z,17.6
2023-04-16T02:52:42.719Z,17.6
2023-04-16T02:53:44.681Z,17.5
2023-04-16T02:54:46.437Z,17.5
2023-04-16T02:55:48.271Z,17.5
2023-04-16T02:56:50.157Z,17.6
2023-04-16T02:57:51.991Z,17.6
2023-04-16T02:58:53.930Z,17.6
2023-04-16T02:59:55.667Z,17.6
2023-04-16T03:00:57.529Z,17.6
2023-04-16T03:01:59.634Z,17.6
2023-04-16T03:03:01.966Z,17.6
2023-04-16T03:04:03.904Z,17.6
2023-04-16T03:05:05.744Z,17.5
2023-04-16T03:06:07.591Z,17.6
2023-04-16T03:07:09.450Z,17.6
2023-04-16T03:08:11.290Z,17.6
2023-04-16T03:09:13.352Z,17.6
2023-04-16T03:10:15.196Z,17.6
2023-04-16T03:11:17.157Z,17.6
2023-04-16T03:12:19.135Z,17.6
2023-04-16T03:13:20.958Z,17.6
2023-04-16T03:14:22.906Z,17.6
2023-04-16T03:15:24.648Z,17.6
2023-04-16T03:16:26.512Z,17.6
2023-04-16T03:17:28.471Z,17.6
2023-04-16T03:18:30.514Z,17.6
2023-04-16T03:19:32.456Z,17.6
2023-04-16T03:20:34.307Z,17.6
2023-04-16T03:21:36.161Z,17.6
2023-04-16T03:22:38.119Z,17.6
2023-04-16T03:23:39.975Z,17.6
2023-04-16T03:24:41.825Z,17.6
2023-04-16T03:25:43.672Z,17.6
2023-04-16T03:26:45.727Z,17.6
2023-04-16T03:27:47.592Z,17.6
2023-04-16T03:28:49.519Z,17.6
2023-04-16T03:29:51.377Z,17.6
2023-04-16T03:30:53.340Z,17.6
2023-04-16T03:31:55.285Z,17.6
2023-04-16T03:32:57.151Z,17.6
2023-04-16T03:33:59.080Z,17.5
2023-04-16T03:35:00.939Z,17.6
2023-04-16T03:36:02.887Z,17.6
2023-04-16T03:37:04.622Z,17.6
2023-04-16T03:38:06.370Z,17.6
2023-04-16T03:39:08.834Z,17.6
2023-04-16T03:40:11.408Z,17.6
2023-04-16T03:41:13.153Z,17.6
2023-04-16T03:42:15.102Z,17.6
2023-04-16T03:43:16.976Z,17.6
2023-04-16T03:44:18.816Z,17.6
2023-04-16T03:45:20.662Z,17.6
2023-04-16T03:46:22.566Z,17.6
2023-04-16T03:47:24.678Z,17.6
2023-04-16T03:48:26.628Z,17.6
2023-04-16T03:49:28.363Z,17.6
2023-04-16T03:50:30.330Z,17.6
2023-04-16T03:51:32.474Z,17.6
2023-04-16T03:52:34.338Z,17.6
2023-04-16T03:53:36.170Z,17.6
2023-04-16T03:54:38.124Z,17.6
2023-04-16T03:55:39.973Z,17.6
2023-04-16T03:56:41.831Z,17.6
2023-04-16T03:57:43.684Z,17.6
2023-04-16T03:58:45.513Z,17.6
2023-04-16T03:59:47.375Z,17.6
2023-04-16T04:00:49.227Z,17.6
2023-04-16T04:01:51.335Z,17.6
2023-04-16T04:02:53.954Z,17.6
2023-04-16T04:03:57.076Z,17.6
2023-04-16T04:04:59.891Z,17.6
2023-04-16T04:06:02.057Z,17.6
2023-04-16T04:07:03.926Z,17.6
2023-04-16T04:08:05.736Z,17.6
2023-04-16T04:09:07.903Z,17.6
2023-04-16T04:10:10.595Z,17.6
2023-04-16T04:11:12.449Z,17.6
2023-04-16T04:12:14.298Z,17.6
2023-04-16T04:13:16.250Z,17.6
2023-04-16T04:14:18.223Z,17.6
2023-04-16T04:15:20.051Z,17.6
2023-04-16T04:16:22.118Z,17.6
2023-04-16T04:17:24.277Z,17.6
2023-04-16T04:18:26.223Z,17.6
2023-04-16T04:19:28.070Z,17.6
2023-04-16T04:20:30.018Z,17.6
2023-04-16T04:21:31.859Z,17.6
2023-04-16T04:22:33.607Z,17.7
2023-04-16T04:23:35.468Z,17.7
2023-04-16T04:24:37.314Z,17.7
2023-04-16T04:25:39.166Z,17.7
2023-04-16T04:26:40.932Z,17.7
2023-04-16T04:27:42.760Z,17.7
2023-04-16T04:28:44.613Z,17.7
2023-04-16T04:29:46.604Z,17.7
2023-04-16T04:30:48.622Z,17.6
2023-04-16T04:31:50.589Z,17.5
2023-04-16T04:32:52.561Z,17.5
2023-04-16T04:33:54.466Z,17.7
2023-04-16T04:34:56.324Z,17.8
2023-04-16T04:35:58.174Z,17.8
2023-04-16T04:37:00.018Z,17.8
2023-04-16T04:38:02.953Z,17.9
2023-04-16T04:39:04.951Z,18
2023-04-16T04:40:06.808Z,18
2023-04-16T04:41:08.749Z,18
2023-04-16T04:42:10.601Z,18
2023-04-16T04:43:12.474Z,18
2023-04-16T04:44:14.306Z,18
2023-04-16T04:45:16.182Z,18
2023-04-16T04:46:18.159Z,18
2023-04-16T04:47:20.380Z,18
2023-04-16T04:48:22.326Z,18
2023-04-16T04:49:24.194Z,18
2023-04-16T04:50:26.010Z,18
2023-04-16T04:51:27.835Z,18
2023-04-16T04:52:29.625Z,17.9
2023-04-16T04:53:31.470Z,17.9
2023-04-16T04:54:33.322Z,18
2023-04-16T04:55:35.159Z,18
2023-04-16T04:56:36.914Z,18
2023-04-16T04:57:38.772Z,18
2023-04-16T04:58:40.711Z,18
2023-04-16T04:59:42.568Z,18
2023-04-16T05:00:44.590Z,18
2023-04-16T05:01:46.578Z,18
2023-04-16T05:02:48.804Z,18
2023-04-16T05:03:51.275Z,18
2023-04-16T05:04:53.390Z,18.1
2023-04-16T05:05:55.287Z,18
2023-04-16T05:06:57.159Z,18
2023-04-16T05:07:59.014Z,18.1
2023-04-16T05:09:00.866Z,18.1
2023-04-16T05:10:02.805Z,18
2023-04-16T05:11:04.663Z,18.1
2023-04-16T05:12:06.504Z,18.1
2023-04-16T05:13:08.468Z,18.1
2023-04-16T05:14:10.308Z,18.1
2023-04-16T05:15:12.261Z,18.1
2023-04-16T05:16:14.246Z,18.1
2023-04-16T05:17:16.266Z,18.1
2023-04-16T05:18:18.239Z,18.1
2023-04-16T05:19:20.177Z,18.2
2023-04-16T05:20:22.023Z,18.2
2023-04-16T05:21:23.868Z,18.2
2023-04-16T05:22:25.833Z,18.2
2023-04-16T05:23:27.682Z,18.2
2023-04-16T05:24:29.422Z,18.2
2023-04-16T05:25:31.283Z,18.2
2023-04-16T05:26:33.223Z,18.2
2023-04-16T05:27:35.190Z,18.2
2023-04-16T05:28:37.110Z,18.3
2023-04-16T05:29:39.090Z,18.3
2023-04-16T05:30:41.051Z,18.3
2023-04-16T05:31:42.922Z,18.3
2023-04-16T05:32:45.037Z,18.3
2023-04-16T05:33:47.112Z,18.3
2023-04-16T05:34:48.952Z,18.3
2023-04-16T05:35:50.899Z,18.3
2023-04-16T05:36:52.745Z,18.3
2023-04-16T05:37:54.405Z,18.3
2023-04-16T05:38:56.247Z,18.3
2023-04-16T05:39:58.100Z,18.3
2023-04-16T05:41:00.051Z,18.3
2023-04-16T05:42:01.740Z,18.3
2023-04-16T05:43:03.555Z,18.3
2023-04-16T05:44:05.406Z,18.3
2023-04-16T05:45:07.345Z,18.3
2023-04-16T05:46:09.329Z,18.3
2023-04-16T05:47:11.350Z,18.3
2023-04-16T05:48:13.308Z,18.3
2023-04-16T05:49:15.252Z,18.3
2023-04-16T05:50:17.219Z,18.3
2023-04-16T05:51:19.064Z,18.3
2023-04-16T05:52:20.916Z,18.3
2023-04-16T05:53:22.755Z,18.4
2023-04-16T05:54:24.711Z,18.4
2023-04-16T05:55:26.524Z,18.3
2023-04-16T05:56:28.320Z,18.3
2023-04-16T05:57:30.157Z,18.4
2023-04-16T05:58:32.009Z,18.3
2023-04-16T05:59:33.856Z,18.3
2023-04-16T06:00:35.777Z,18.3
2023-04-16T06:01:37.862Z,18.4
2023-04-16T06:02:40.024Z,18.3
2023-04-16T06:03:42.583Z,18.3
2023-04-16T06:04:44.665Z,18.3
2023-04-16T06:05:46.612Z,18.3
2023-04-16T06:06:48.561Z,18.4
2023-04-16T06:07:50.400Z,18.4
2023-04-16T06:08:52.358Z,18.4
2023-04-16T06:09:54.209Z,18.4
2023-04-16T06:10:56.054Z,18.3
2023-04-16T06:11:57.909Z,18.3
2023-04-16T06:12:59.755Z,18.3
2023-04-16T06:14:01.715Z,18.3
2023-04-16T06:15:03.572Z,18.3
2023-04-16T06:16:05.613Z,18.3
2023-04-16T06:17:07.670Z,18.3
2023-04-16T06:18:09.670Z,18.3
2023-04-16T06:19:12.173Z,18.3
2023-04-16T06:20:14.149Z,18.4
2023-04-16T06:21:16.099Z,18.3
2023-04-16T06:22:17.853Z,18.3
2023-04-16T06:23:19.687Z,18.3
2023-04-16T06:24:21.535Z,18.3
2023-04-16T06:25:23.448Z,18.3
2023-04-16T06:26:25.242Z,18.3
2023-04-16T06:27:27.085Z,18.3
2023-04-16T06:28:28.945Z,18.3
2023-04-16T06:29:41.760Z,18.3
2023-04-16T06:30:45.036Z,18.3
2023-04-16T06:31:47.032Z,18.3
2023-04-16T06:32:49.371Z,18.3
2023-04-16T06:33:51.503Z,18.3
2023-04-16T06:34:53.352Z,18.3
2023-04-16T06:35:55.208Z,18.3
2023-04-16T06:36:56.953Z,18.3
2023-04-16T06:37:58.903Z,18.3
2023-04-16T06:39:00.740Z,18.3
2023-04-16T06:40:02.503Z,18.3
2023-04-16T06:41:04.435Z,18.3
2023-04-16T06:42:06.404Z,18.3
2023-04-16T06:43:08.261Z,18.3
2023-04-16T06:44:10.229Z,18.3
2023-04-16T06:45:12.062Z,18.2
2023-04-16T06:46:14.089Z,18.2
2023-04-16T06:47:16.065Z,18.2
2023-04-16T06:48:18.320Z,18.2
2023-04-16T06:49:20.188Z,18.2
2023-04-16T06:50:21.924Z,18.1
2023-04-16T06:51:23.764Z,18.1
2023-04-16T06:52:25.612Z,18.1
2023-04-16T06:53:27.367Z,18.1
2023-04-16T06:54:29.315Z,18.1
2023-04-16T06:55:31.162Z,18
2023-04-16T06:56:33.027Z,18
2023-04-16T06:57:37.780Z,18
2023-04-16T06:58:39.581Z,18
2023-04-16T06:59:41.338Z,18
2023-04-16T07:00:43.327Z,18
2023-04-16T07:01:45.359Z,18
2023-04-16T07:02:47.504Z,18
2023-04-16T07:03:50.188Z,18
2023-04-16T07:04:52.865Z,18
2023-04-16T07:05:54.798Z,18
2023-04-16T07:06:56.549Z,17.9
2023-04-16T07:07:58.396Z,17.9
2023-04-16T07:09:00.335Z,17.9
2023-04-16T07:10:02.231Z,18
2023-04-16T07:11:04.251Z,17.9
2023-04-16T07:12:06.103Z,17.9
2023-04-16T07:13:07.956Z,17.9
2023-04-16T07:14:09.797Z,17.9
2023-04-16T07:15:11.648Z,17.9
2023-04-16T07:16:13.639Z,17.9
2023-04-16T07:17:15.650Z,17.9
2023-04-16T07:18:20.669Z,17.9
2023-04-16T07:19:22.626Z,17.9
2023-04-16T07:20:24.603Z,17.9
2023-04-16T07:21:26.541Z,17.9
2023-04-16T07:22:28.394Z,17.9
2023-04-16T07:23:30.245Z,17.9
2023-04-16T07:24:32.089Z,17.9
2023-04-16T07:25:33.932Z,17.9
2023-04-16T07:26:35.893Z,17.9
2023-04-16T07:27:37.842Z,17.9
2023-04-16T07:28:39.691Z,17.9
2023-04-16T07:29:41.548Z,17.9
2023-04-16T07:30:43.391Z,17.9
2023-04-16T07:31:45.401Z,17.9
2023-04-16T07:32:47.605Z,17.8
2023-04-16T07:33:49.661Z,17.8
2023-04-16T07:34:51.609Z,17.9
2023-04-16T07:35:53.481Z,17.8
2023-04-16T07:36:55.408Z,17.8
2023-04-16T07:37:57.374Z,17.8
2023-04-16T07:38:59.219Z,17.8
2023-04-16T07:40:01.179Z,17.8
2023-04-16T07:41:03.014Z,17.8
2023-04-16T07:42:04.745Z,17.8
2023-04-16T07:43:06.715Z,17.8
2023-04-16T07:44:08.577Z,17.8
2023-04-16T07:45:10.425Z,17.8
2023-04-16T07:46:12.393Z,17.8
2023-04-16T07:47:14.424Z,17.8
2023-04-16T07:48:16.381Z,17.8
2023-04-16T07:49:18.540Z,17.8
2023-04-16T07:50:20.485Z,17.8
2023-04-16T07:51:22.357Z,17.8
2023-04-16T07:52:24.285Z,17.8
2023-04-16T07:53:26.088Z,17.8
2023-04-16T07:54:29.352Z,17.8
2023-04-16T07:55:31.174Z,17.8
2023-04-16T07:56:33.033Z,17.8
2023-04-16T07:57:35.071Z,17.8
2023-04-16T07:58:37.027Z,17.8
2023-04-16T07:59:38.789Z,17.8
2023-04-16T08:00:40.705Z,17.8
2023-04-16T08:01:42.567Z,17.8
2023-04-16T08:02:45.087Z,17.8
2023-04-16T08:03:47.956Z,17.8
2023-04-16T08:04:50.679Z,17.8
2023-04-16T08:05:53.063Z,17.8
2023-04-16T08:06:54.925Z,17.8
2023-04-16T08:07:56.963Z,17.8
2023-04-16T08:08:58.904Z,17.8
2023-04-16T08:10:00.729Z,17.8
2023-04-16T08:11:02.596Z,17.8
2023-04-16T08:12:04.468Z,17.8
2023-04-16T08:13:06.442Z,17.8
2023-04-16T08:14:08.369Z,17.8
2023-04-16T08:15:10.325Z,17.8
2023-04-16T08:16:12.232Z,17.8
2023-04-16T08:17:14.111Z,17.8
2023-04-16T08:18:15.962Z,17.8
2023-04-16T08:19:17.914Z,17.8
2023-04-16T08:20:19.889Z,17.8
2023-04-16T08:21:21.741Z,17.8
2023-04-16T08:22:23.602Z,17.8
2023-04-16T08:23:25.429Z,17.7
2023-04-16T08:24:27.277Z,17.8
2023-04-16T08:25:29.229Z,17.8
2023-04-16T08:26:31.084Z,17.8
2023-04-16T08:27:32.908Z,17.8
2023-04-16T08:28:34.780Z,17.8
2023-04-16T08:29:36.733Z,17.8
2023-04-16T08:30:38.575Z,17.9
2023-04-16T08:31:40.578Z,17.8
2023-04-16T08:32:42.816Z,17.9
2023-04-16T08:33:44.752Z,17.9
2023-04-16T08:34:46.608Z,17.9
2023-04-16T08:35:48.441Z,17.8
2023-04-16T08:36:50.196Z,17.8
2023-04-16T08:37:52.068Z,17.9
2023-04-16T08:38:53.996Z,17.8
2023-04-16T08:39:55.873Z,17.9
2023-04-16T08:40:57.686Z,17.9
2023-04-16T08:41:59.446Z,17.8
2023-04-16T08:43:01.435Z,17.8
2023-04-16T08:44:03.162Z,17.8
2023-04-16T08:45:05.001Z,17.9
2023-04-16T08:46:06.954Z,17.8
2023-04-16T08:47:09.429Z,17.9
2023-04-16T08:48:11.466Z,17.9
2023-04-16T08:49:13.323Z,18
2023-04-16T08:50:15.271Z,17.9
2023-04-16T08:51:17.121Z,18
2023-04-16T08:52:18.965Z,17.9
2023-04-16T08:53:21.361Z,18
2023-04-16T08:54:24.822Z,18
2023-04-16T08:55:27.085Z,18
2023-04-16T08:56:28.934Z,18
2023-04-16T08:57:30.784Z,18
2023-04-16T08:58:32.616Z,18
2023-04-16T08:59:34.482Z,18
2023-04-16T09:00:36.423Z,18
2023-04-16T09:01:38.391Z,18
2023-04-16T09:02:41.169Z,18
2023-04-16T09:03:43.899Z,18
2023-04-16T09:04:46.505Z,18.1
2023-04-16T09:05:48.651Z,18.1
2023-04-16T09:06:50.494Z,18.1
2023-04-16T09:07:52.351Z,18.1
2023-04-16T09:08:54.220Z,18.1
2023-04-16T09:09:56.029Z,18.1
2023-04-16T09:10:57.901Z,18.1
2023-04-16T09:11:59.748Z,18.1
2023-04-16T09:13:01.656Z,18.1
2023-04-16T09:14:03.526Z,18
2023-04-16T09:15:05.309Z,18
2023-04-16T09:16:07.278Z,18
2023-04-16T09:17:09.208Z,18
2023-04-16T09:18:11.169Z,18
2023-04-16T09:19:13.111Z,18
2023-04-16T09:20:14.962Z,18
2023-04-16T09:21:16.913Z,18
2023-04-16T09:22:18.738Z,18
2023-04-16T09:23:20.722Z,18
2023-04-16T09:24:22.585Z,18
2023-04-16T09:25:24.310Z,18
2023-04-16T09:26:26.261Z,18
2023-04-16T09:27:28.106Z,18
2023-04-16T09:28:30.069Z,18
2023-04-16T09:29:31.920Z,18
2023-04-16T09:30:33.773Z,18
2023-04-16T09:31:35.750Z,18
2023-04-16T09:32:37.709Z,18
2023-04-16T09:33:39.546Z,18
2023-04-16T09:34:41.354Z,18
2023-04-16T09:35:43.218Z,18
2023-04-16T09:36:45.076Z,18
2023-04-16T09:37:46.930Z,18
2023-04-16T09:38:48.878Z,18
2023-04-16T09:39:50.750Z,18
2023-04-16T09:40:52.581Z,18
2023-04-16T09:41:54.541Z,18
2023-04-16T09:42:56.499Z,18
2023-04-16T09:43:58.437Z,18
2023-04-16T09:45:05.653Z,18
2023-04-16T09:46:08.962Z,18
2023-04-16T09:47:11.055Z,17.9
2023-04-16T09:48:12.897Z,17.9
2023-04-16T09:49:14.843Z,17.9
2023-04-16T09:50:18.965Z,18
2023-04-16T09:51:20.937Z,18
2023-04-16T09:52:22.770Z,17.9
2023-04-16T09:53:24.604Z,17.9
2023-04-16T09:54:26.467Z,18
2023-04-16T09:55:28.223Z,18
2023-04-16T09:56:30.051Z,18
2023-04-16T09:57:31.809Z,18
2023-04-16T09:58:33.761Z,18
2023-04-16T09:59:35.600Z,18
2023-04-16T10:00:43.826Z,18
2023-04-16T10:01:46.093Z,18
2023-04-16T10:02:50.900Z,18
2023-04-16T10:03:53.640Z,18
2023-04-16T10:04:56.212Z,18
2023-04-16T10:05:58.385Z,18
2023-04-16T10:07:00.127Z,18
2023-04-16T10:08:02.099Z,18
2023-04-16T10:09:04.033Z,18
2023-04-16T10:10:05.986Z,18
2023-04-16T10:11:07.707Z,18
2023-04-16T10:12:09.480Z,18
2023-04-16T10:13:11.428Z,18
2023-04-16T10:14:13.278Z,18
2023-04-16T10:15:15.028Z,18
2023-04-16T10:16:16.904Z,18
2023-04-16T10:17:18.840Z,18
2023-04-16T10:18:21.071Z,18
2023-04-16T10:19:23.040Z,18
2023-04-16T10:20:24.900Z,18
2023-04-16T10:21:26.755Z,18
2023-04-16T10:22:28.593Z,18
2023-04-16T10:23:30.445Z,18
2023-04-16T10:24:32.301Z,18
2023-04-16T10:25:34.349Z,18
2023-04-16T10:26:36.228Z,18
2023-04-16T10:27:38.156Z,18
2023-04-16T10:28:39.905Z,18
2023-04-16T10:29:41.748Z,18
2023-04-16T10:30:43.724Z,17.9
2023-04-16T10:31:45.556Z,17.9
2023-04-16T10:32:47.538Z,17.9
2023-04-16T10:33:49.349Z,17.9
2023-04-16T10:34:51.205Z,17.9
2023-04-16T10:36:08.068Z,17.9
2023-04-16T10:37:10.063Z,17.9
2023-04-16T10:38:12.019Z,17.9
2023-04-16T10:39:17.389Z,17.9
2023-04-16T10:40:19.608Z,17.9
2023-04-16T10:41:21.452Z,17.9
2023-04-16T10:42:23.440Z,17.9
2023-04-16T10:43:25.363Z,17.9
2023-04-16T10:44:27.153Z,17.8
2023-04-16T10:45:28.846Z,17.9
2023-04-16T10:46:30.789Z,17.9
2023-04-16T10:47:33.023Z,17.9
2023-04-16T10:48:50.020Z,17.9
2023-04-16T10:49:52.750Z,17.8
2023-04-16T10:50:54.612Z,17.9
2023-04-16T10:51:56.433Z,17.9
2023-04-16T10:52:58.283Z,17.9
2023-04-16T10:54:00.250Z,17.9
2023-04-16T10:55:02.203Z,17.9
2023-04-16T10:56:04.024Z,17.9
2023-04-16T10:57:05.995Z,17.9
2023-04-16T10:58:07.968Z,17.9
2023-04-16T10:59:10.330Z,17.9
2023-04-16T11:00:13.180Z,17.9
2023-04-16T11:01:15.142Z,18
2023-04-16T11:02:17.312Z,17.9
2023-04-16T11:03:20.767Z,17.9
2023-04-16T11:04:23.551Z,17.9
2023-04-16T11:05:25.925Z,18
2023-04-16T11:06:27.871Z,17.9
2023-04-16T11:07:29.916Z,17.9
2023-04-16T11:08:32.201Z,18
2023-04-16T11:09:34.129Z,17.9
2023-04-16T11:10:36.097Z,18
2023-04-16T11:11:37.945Z,18
2023-04-16T11:12:39.798Z,18
2023-04-16T11:13:43.701Z,18
2023-04-16T11:14:45.537Z,17.9
2023-04-16T11:15:47.397Z,18
2023-04-16T11:16:49.367Z,18
2023-04-16T11:17:51.605Z,18
2023-04-16T11:18:56.848Z,18
2023-04-16T11:19:58.988Z,18
2023-04-16T11:21:00.986Z,18
2023-04-16T11:22:02.890Z,18
2023-04-16T11:23:04.732Z,18
2023-04-16T11:24:06.593Z,18.1
2023-04-16T11:25:08.544Z,18
2023-04-16T11:26:10.358Z,18.1
2023-04-16T11:27:12.144Z,18.1
2023-04-16T11:28:14.078Z,18.1
2023-04-16T11:29:15.976Z,18
2023-04-16T11:30:17.802Z,18.1
2023-04-16T11:31:19.790Z,18.1
2023-04-16T11:32:21.952Z,18.1
2023-04-16T11:33:24.046Z,18.1
2023-04-16T11:34:25.912Z,18.1
2023-04-16T11:35:27.853Z,18.1
2023-04-16T11:36:29.810Z,18.1
2023-04-16T11:37:31.668Z,18.1
2023-04-16T11:38:33.514Z,18.1
2023-04-16T11:39:35.335Z,18.1
2023-04-16T11:40:37.308Z,18.1
2023-04-16T11:41:39.158Z,18.1
2023-04-16T11:42:41.267Z,18.1
2023-04-16T11:43:43.379Z,18.1
2023-04-16T11:44:45.282Z,18
2023-04-16T11:45:47.173Z,18.1
2023-04-16T11:46:49.218Z,18
2023-04-16T11:47:51.528Z,18
2023-04-16T11:48:54.058Z,18
2023-04-16T11:49:55.903Z,18
2023-04-16T11:50:57.768Z,18
2023-04-16T11:51:59.811Z,18
2023-04-16T11:53:01.662Z,18
2023-04-16T11:54:03.498Z,18
2023-04-16T11:55:05.317Z,18
2023-04-16T11:56:07.123Z,18
2023-04-16T11:57:09.069Z,18
2023-04-16T11:58:10.921Z,18
2023-04-16T11:59:13.940Z,18.1
2023-04-16T12:00:17.008Z,18
2023-04-16T12:01:18.779Z,18
2023-04-16T12:02:20.983Z,18
2023-04-16T12:03:23.609Z,18
2023-04-16T12:04:26.339Z,18
2023-04-16T12:05:28.777Z,18.1
2023-04-16T12:06:30.534Z,18
2023-04-16T12:07:32.384Z,18
2023-04-16T12:08:34.225Z,18
2023-04-16T12:09:40.647Z,18
2023-04-16T12:10:42.852Z,18.1
2023-04-16T12:11:44.700Z,18.1
2023-04-16T12:12:46.658Z,18.1
2023-04-16T12:13:48.481Z,18.1
2023-04-16T12:14:50.351Z,18
2023-04-16T12:15:52.204Z,18.1
2023-04-16T12:16:54.101Z,18.2
2023-04-16T12:17:56.283Z,18.1
2023-04-16T12:18:58.171Z,18.2
2023-04-16T12:20:00.006Z,18.1
2023-04-16T12:21:01.960Z,18.2
2023-04-16T12:22:03.810Z,18.2
2023-04-16T12:23:05.662Z,18.2
2023-04-16T12:24:07.504Z,18.2
2023-04-16T12:25:09.487Z,18.2
2023-04-16T12:26:11.323Z,18.2
2023-04-16T12:27:13.160Z,18.2
2023-04-16T12:28:14.907Z,18.2
2023-04-16T12:29:16.771Z,18.2
2023-04-16T12:30:18.721Z,18.3
2023-04-16T12:31:20.829Z,18.2
2023-04-16T12:32:22.967Z,18.2
2023-04-16T12:33:25.081Z,18.2
2023-04-16T12:34:49.694Z,18
2023-04-16T12:35:51.726Z,17.9
2023-04-16T12:36:53.574Z,18.5
2023-04-16T12:37:55.526Z,18.3
2023-04-16T12:38:57.471Z,18.4
2023-04-16T12:39:59.432Z,18.4
2023-04-16T12:41:01.281Z,18.5
2023-04-16T12:42:03.539Z,18.6
2023-04-16T12:43:05.709Z,18.6
2023-04-16T12:44:07.447Z,18.5
2023-04-16T12:45:09.296Z,18.5
2023-04-16T12:46:11.259Z,18.6
2023-04-16T12:47:13.438Z,18.5
2023-04-16T12:48:15.352Z,18.5
2023-04-16T12:49:17.201Z,18.5
2023-04-16T12:50:18.851Z,18.5
2023-04-16T12:51:20.704Z,18.5
2023-04-16T12:52:23.987Z,18.5
2023-04-16T12:53:25.827Z,18.4
2023-04-16T12:54:27.687Z,18.4
2023-04-16T12:55:29.517Z,18.4
2023-04-16T12:56:31.483Z,18.4
2023-04-16T12:57:33.446Z,18.4
2023-04-16T12:58:35.396Z,18.4
2023-04-16T12:59:37.241Z,18.3
2023-04-16T13:00:39.110Z,18.3
2023-04-16T13:01:41.094Z,18.3
2023-04-16T13:02:43.387Z,18.3
2023-04-16T13:03:46.225Z,18.3
2023-04-16T13:04:49.108Z,18.3
2023-04-16T13:05:51.270Z,18.3
2023-04-16T13:06:53.167Z,18.3
2023-04-16T13:07:54.915Z,18.3
2023-04-16T13:08:56.858Z,18.3
2023-04-16T13:09:58.605Z,18.3
2023-04-16T13:11:00.454Z,18.3
2023-04-16T13:12:02.313Z,18.3
2023-04-16T13:13:04.122Z,18.3
2023-04-16T13:14:06.010Z,18.3
2023-04-16T13:15:07.773Z,18.3
2023-04-16T13:16:09.720Z,18.3
2023-04-16T13:17:11.874Z,18.3
2023-04-16T13:18:13.746Z,18.3
2023-04-16T13:19:15.564Z,18.3
2023-04-16T13:20:17.545Z,18.3
2023-04-16T13:21:19.382Z,18.3
2023-04-16T13:22:21.239Z,18.3
2023-04-16T13:23:23.075Z,18.3
2023-04-16T13:24:24.929Z,18.3
2023-04-16T13:25:26.890Z,18.3
2023-04-16T13:26:28.634Z,18.4
2023-04-16T13:27:30.475Z,18.3
2023-04-16T13:28:32.317Z,18.3
2023-04-16T13:29:34.176Z,18.3
2023-04-16T13:30:36.129Z,18.3
2023-04-16T13:31:38.104Z,18.4
2023-04-16T13:32:40.345Z,18.4
2023-04-16T13:33:42.225Z,18.4
2023-04-16T13:34:44.037Z,18.3
2023-04-16T13:35:45.791Z,18.3
2023-04-16T13:36:47.632Z,18.4
2023-04-16T13:37:49.492Z,18.4
2023-04-16T13:38:51.337Z,18.4
2023-04-16T13:39:53.282Z,18.4
2023-04-16T13:40:55.145Z,18.4
2023-04-16T13:41:56.990Z,18.4
2023-04-16T13:42:58.847Z,18.4
2023-04-16T13:44:00.683Z,18.4
2023-04-16T13:45:02.636Z,18.4
2023-04-16T13:46:04.483Z,18.5
2023-04-16T13:47:06.638Z,18.4
2023-04-16T13:48:08.796Z,18.5
2023-04-16T13:49:11.332Z,18.5
2023-04-16T13:50:13.835Z,18.4
2023-04-16T13:51:15.779Z,18.4
2023-04-16T13:52:17.534Z,18.4
2023-04-16T13:53:19.377Z,18.4
2023-04-16T13:54:21.235Z,18.4
2023-04-16T13:55:23.163Z,18.4
2023-04-16T13:56:25.027Z,18.4
2023-04-16T13:57:26.785Z,18.4